createdAt,value
2022-09-21T00:01:34.537Z,83.13
2022-09-21T00:04:06.046Z,82.26
2022-09-21T00:06:38.172Z,82.50
2022-09-21T00:09:09.552Z,82.56
2022-09-21T00:11:41.035Z,82.60
2022-09-21T00:14:14.267Z,82.91
2022-09-21T00:16:45.751Z,82.61
2022-09-21T00:19:17.337Z,83.21
2022-09-21T00:21:48.912Z,82.81
2022-09-21T00:24:20.159Z,82.47
2022-09-21T00:26:51.462Z,82.91
2022-09-21T00:29:22.731Z,83.21
2022-09-21T00:31:54.026Z,83.30
2022-09-21T00:34:25.789Z,83.39
2022-09-21T00:36:57.045Z,83.15
2022-09-21T00:39:28.538Z,83.17
2022-09-21T00:41:59.815Z,83.35
2022-09-21T00:44:32.943Z,83.57
2022-09-21T00:47:10.088Z,83.32
2022-09-21T00:49:44.776Z,83.56
2022-09-21T00:52:19.485Z,83.23
2022-09-21T00:55:00.651Z,83.72
2022-09-21T00:57:32.600Z,83.52
2022-09-21T01:00:11.072Z,82.84
2022-09-21T01:02:42.767Z,83.41
2022-09-21T01:05:14.169Z,83.17
2022-09-21T01:07:47.829Z,83.33
2022-09-21T01:10:19.942Z,83.59
2022-09-21T01:12:57.000Z,83.45
2022-09-21T01:15:46.642Z,82.99
2022-09-21T01:18:24.102Z,83.46
2022-09-21T01:21:13.977Z,83.58
2022-09-21T01:24:14.166Z,83.21
2022-09-21T01:27:04.159Z,83.50
2022-09-21T01:30:07.976Z,83.82
2022-09-21T01:32:52.233Z,83.15
2022-09-21T01:35:28.768Z,83.90
2022-09-21T01:38:15.717Z,82.82
2022-09-21T01:40:52.874Z,83.64
2022-09-21T01:43:28.348Z,83.60
2022-09-21T01:49:50.209Z,83.21
2022-09-21T01:52:26.710Z,83.09
2022-09-21T01:55:10.376Z,83.98
2022-09-21T01:57:59.344Z,83.73
2022-09-21T02:00:34.544Z,83.36
2022-09-21T02:03:14.018Z,83.33
2022-09-21T02:05:45.427Z,83.91
2022-09-21T02:08:16.954Z,84.11
2022-09-21T02:10:51.730Z,83.75
2022-09-21T02:13:27.524Z,84.21
2022-09-21T02:16:22.793Z,83.74
2022-09-21T02:19:27.995Z,83.69
2022-09-21T02:22:07.215Z,83.91
2022-09-21T02:24:49.141Z,82.90
2022-09-21T02:27:37.301Z,83.22
2022-09-21T02:30:24.769Z,83.32
2022-09-21T02:33:22.890Z,83.82
2022-09-21T02:36:46.952Z,84.32
2022-09-21T02:39:24.850Z,83.63
2022-09-21T02:42:05.706Z,83.63
2022-09-21T02:44:46.392Z,83.94
2022-09-21T02:47:31.578Z,83.85
2022-09-21T02:50:09.317Z,83.71
2022-09-21T02:52:43.303Z,84.08
2022-09-21T02:55:17.006Z,84.40
2022-09-21T02:57:49.810Z,84.16
2022-09-21T03:00:21.266Z,83.59
2022-09-21T03:02:52.568Z,83.28
2022-09-21T03:05:24.122Z,84.00
2022-09-21T03:07:55.385Z,83.99
2022-09-21T03:10:26.653Z,83.59
2022-09-21T03:12:59.459Z,84.22
2022-09-21T03:15:31.370Z,84.54
2022-09-21T03:18:04.981Z,83.38
2022-09-21T03:20:37.458Z,84.19
2022-09-21T03:23:08.835Z,83.85
2022-09-21T03:25:40.498Z,84.22
2022-09-21T03:28:12.799Z,83.61
2022-09-21T03:30:44.500Z,83.63
2022-09-21T03:33:18.982Z,83.30
2022-09-21T03:35:50.912Z,83.57
2022-09-21T03:38:22.296Z,83.59
2022-09-21T03:40:57.781Z,83.17
2022-09-21T03:43:29.274Z,83.85
2022-09-21T03:46:00.602Z,83.60
2022-09-21T03:48:32.639Z,83.51
2022-09-21T03:51:03.990Z,83.64
2022-09-21T03:53:35.778Z,84.07
2022-09-21T03:56:07.084Z,84.03
2022-09-21T03:58:38.332Z,83.69
2022-09-21T04:01:09.721Z,84.42
2022-09-21T04:03:41.047Z,83.47
2022-09-21T04:06:13.066Z,84.04
2022-09-21T04:08:44.417Z,84.58
2022-09-21T04:11:18.492Z,84.64
2022-09-21T04:13:53.180Z,83.72
2022-09-21T04:16:25.418Z,83.71
2022-09-21T04:18:57.060Z,84.07
2022-09-21T04:21:28.576Z,84.04
2022-09-21T04:24:01.893Z,83.88
2022-09-21T04:26:34.826Z,83.81
2022-09-21T04:29:06.341Z,83.48
2022-09-21T04:31:38.495Z,84.13
2022-09-21T04:34:13.715Z,84.88
2022-09-21T04:36:45.865Z,83.94
2022-09-21T04:39:17.143Z,84.02
2022-09-21T04:41:48.737Z,83.64
2022-09-21T04:44:19.988Z,83.44
2022-09-21T04:46:51.414Z,83.51
2022-09-21T04:49:22.777Z,83.83
2022-09-21T04:51:54.138Z,84.32
2022-09-21T04:54:25.482Z,83.41
2022-09-21T04:56:57.041Z,84.38
2022-09-21T04:59:28.310Z,83.88
2022-09-21T05:01:59.624Z,83.93
2022-09-21T05:04:30.960Z,84.15
2022-09-21T05:07:02.337Z,84.27
2022-09-21T05:09:52.450Z,84.07
2022-09-21T05:12:23.710Z,84.21
2022-09-21T05:14:55.957Z,83.69
2022-09-21T05:17:27.539Z,84.41
2022-09-21T05:19:58.890Z,84.00
2022-09-21T05:22:30.148Z,84.11
2022-09-21T05:25:01.509Z,84.19
2022-09-21T05:27:32.756Z,83.94
2022-09-21T05:30:05.756Z,84.36
2022-09-21T05:32:46.172Z,83.53
2022-09-21T05:35:37.890Z,83.94
2022-09-21T05:38:18.929Z,84.69
2022-09-21T05:40:50.544Z,83.73
2022-09-21T05:43:22.167Z,84.72
2022-09-21T05:46:02.591Z,84.07
2022-09-21T05:48:42.997Z,84.64
2022-09-21T05:51:32.294Z,84.25
2022-09-21T05:54:26.410Z,84.02
2022-09-21T05:57:38.240Z,84.65
2022-09-21T06:00:20.561Z,84.86
2022-09-21T06:03:04.524Z,85.13
2022-09-21T06:05:36.502Z,84.59
2022-09-21T06:08:07.814Z,84.97
2022-09-21T06:10:39.161Z,85.12
2022-09-21T06:13:10.589Z,85.11
2022-09-21T06:15:42.147Z,85.17
2022-09-21T06:18:17.773Z,84.64
2022-09-21T06:20:49.611Z,85.06
2022-09-21T06:23:21.020Z,85.40
2022-09-21T06:25:57.534Z,84.73
2022-09-21T06:28:29.841Z,85.04
2022-09-21T06:31:01.225Z,85.42
2022-09-21T06:33:32.598Z,84.91
2022-09-21T06:36:04.104Z,85.39
2022-09-21T06:38:35.496Z,85.15
2022-09-21T06:41:06.770Z,85.41
2022-09-21T06:43:38.059Z,85.25
2022-09-21T06:46:09.384Z,85.36
2022-09-21T06:48:40.699Z,85.12
2022-09-21T06:51:12.012Z,85.32
2022-09-21T06:53:43.259Z,85.78
2022-09-21T06:56:14.833Z,85.50
2022-09-21T06:58:47.443Z,85.56
2022-09-21T07:01:19.477Z,85.53
2022-09-21T07:03:51.897Z,85.18
2022-09-21T07:06:23.143Z,85.34
2022-09-21T07:11:46.510Z,85.22
2022-09-21T07:14:17.794Z,85.26
2022-09-21T07:16:49.598Z,85.53
2022-09-21T07:19:20.866Z,85.08
2022-09-21T07:21:55.393Z,85.38
2022-09-21T07:24:26.652Z,85.15
2022-09-21T07:26:58.102Z,84.89
2022-09-21T07:29:30.474Z,84.63
2022-09-21T07:32:01.991Z,84.02
2022-09-21T07:34:37.121Z,84.35
2022-09-21T07:37:08.446Z,84.24
2022-09-21T07:39:39.768Z,83.84
2022-09-21T07:42:11.024Z,83.58
2022-09-21T07:44:42.264Z,83.43
2022-09-21T07:47:14.666Z,83.27
2022-09-21T07:49:47.025Z,83.17
2022-09-21T07:52:19.288Z,83.07
2022-09-21T07:54:50.548Z,82.79
2022-09-21T07:57:40.353Z,82.70
2022-09-21T08:00:12.389Z,82.52
2022-09-21T08:02:47.435Z,82.14
2022-09-21T08:05:19.519Z,82.07
2022-09-21T08:07:50.994Z,82.16
2022-09-21T08:10:22.784Z,81.43
2022-09-21T08:12:55.146Z,81.28
2022-09-21T08:15:47.356Z,80.39
2022-09-21T08:18:18.623Z,80.27
2022-09-21T08:20:57.202Z,80.21
2022-09-21T08:23:29.417Z,79.82
2022-09-21T08:26:02.330Z,79.93
2022-09-21T08:28:36.188Z,79.34
2022-09-21T08:31:09.524Z,78.99
2022-09-21T08:33:40.869Z,78.76
2022-09-21T08:36:12.211Z,78.67
2022-09-21T08:38:43.721Z,78.40
2022-09-21T08:41:30.196Z,77.64
2022-09-21T08:44:11.054Z,77.63
2022-09-21T08:46:44.652Z,77.82
2022-09-21T08:49:26.698Z,77.11
2022-09-21T08:52:01.962Z,77.04
2022-09-21T08:55:17.583Z,76.94
2022-09-21T08:57:49.176Z,77.29
2022-09-21T09:00:20.760Z,76.66
2022-09-21T09:03:07.118Z,75.93
2022-09-21T09:05:44.005Z,76.08
2022-09-21T09:08:45.760Z,75.56
2022-09-21T09:11:34.289Z,75.29
2022-09-21T09:14:13.921Z,74.93
2022-09-21T09:17:05.694Z,74.40
2022-09-21T09:19:48.062Z,74.74
2022-09-21T09:22:25.478Z,74.56
2022-09-21T09:25:03.171Z,73.82
2022-09-21T09:27:38.838Z,73.45
2022-09-21T09:30:18.464Z,72.89
2022-09-21T09:33:01.725Z,72.46
2022-09-21T09:35:52.742Z,71.81
2022-09-21T09:38:39.389Z,71.90
2022-09-21T09:41:13.441Z,72.26
2022-09-21T09:43:58.157Z,71.00
2022-09-21T09:46:57.607Z,69.67
2022-09-21T09:49:40.598Z,70.42
2022-09-21T09:52:15.044Z,69.77
2022-09-21T09:54:46.548Z,69.42
2022-09-21T09:57:28.743Z,68.98
2022-09-21T10:00:05.510Z,68.35
2022-09-21T10:02:46.334Z,68.42
2022-09-21T10:05:33.890Z,68.18
2022-09-21T10:08:05.182Z,67.69
2022-09-21T10:10:40.988Z,67.96
2022-09-21T10:13:21.925Z,67.81
2022-09-21T10:16:01.123Z,66.74
2022-09-21T10:19:05.792Z,66.18
2022-09-21T10:21:40.509Z,66.45
2022-09-21T10:24:17.588Z,65.88
2022-09-21T10:26:54.404Z,64.81
2022-09-21T10:29:26.048Z,64.35
2022-09-21T10:32:03.005Z,63.90
2022-09-21T10:34:35.481Z,63.34
2022-09-21T10:37:30.233Z,62.96
2022-09-21T10:40:01.769Z,63.12
2022-09-21T10:42:41.989Z,62.11
2022-09-21T10:45:16.518Z,62.02
2022-09-21T10:47:54.034Z,61.54
2022-09-21T10:50:28.261Z,61.51
2022-09-21T10:53:17.467Z,60.62
2022-09-21T10:56:04.831Z,60.42
2022-09-21T10:59:21.745Z,59.21
2022-09-21T11:01:55.901Z,59.77
2022-09-21T11:04:43.589Z,59.42
2022-09-21T11:07:27.416Z,59.56
2022-09-21T11:10:10.946Z,59.48
2022-09-21T11:13:06.454Z,58.53
2022-09-21T11:15:47.080Z,58.12
2022-09-21T11:18:45.702Z,56.39
2022-09-21T11:21:36.432Z,57.09
2022-09-21T11:24:27.039Z,57.13
2022-09-21T11:27:19.938Z,56.27
2022-09-21T11:30:07.102Z,56.44
2022-09-21T11:32:53.936Z,56.32
2022-09-21T11:35:41.181Z,55.76
2022-09-21T11:38:38.716Z,54.59
2022-09-21T11:41:24.237Z,55.25
2022-09-21T11:44:10.580Z,55.55
2022-09-21T11:46:59.168Z,55.69
2022-09-21T11:49:48.607Z,55.96
2022-09-21T11:52:32.434Z,57.12
2022-09-21T11:55:25.474Z,57.43
2022-09-21T11:58:10.183Z,57.28
2022-09-21T12:00:58.981Z,56.31
2022-09-21T12:03:57.595Z,54.82
2022-09-21T12:06:37.680Z,54.99
2022-09-21T12:09:47.539Z,53.79
2022-09-21T12:12:25.515Z,54.41
2022-09-21T12:15:11.331Z,53.79
2022-09-21T12:18:36.750Z,52.85
2022-09-21T12:21:24.038Z,53.45
2022-09-21T12:24:02.978Z,53.55
2022-09-21T12:26:44.796Z,52.99
2022-09-21T12:29:50.817Z,52.15
2022-09-21T12:32:36.863Z,51.92
2022-09-21T12:35:14.667Z,51.57
2022-09-21T12:38:04.572Z,51.08
2022-09-21T12:40:38.982Z,51.01
2022-09-21T12:43:41.452Z,51.16
2022-09-21T12:46:24.961Z,50.38
2022-09-21T12:48:59.010Z,50.00
2022-09-21T12:51:43.246Z,49.29
2022-09-21T12:54:28.081Z,49.06
2022-09-21T12:57:45.444Z,48.43
2022-09-21T13:00:21.992Z,48.51
2022-09-21T13:02:58.685Z,48.16
2022-09-21T13:05:44.309Z,47.99
2022-09-21T13:08:19.949Z,48.36
2022-09-21T13:11:01.704Z,48.12
2022-09-21T13:13:35.193Z,47.04
2022-09-21T13:16:07.743Z,46.94
2022-09-21T13:18:40.442Z,47.03
2022-09-21T13:21:21.957Z,46.87
2022-09-21T13:23:58.161Z,46.14
2022-09-21T13:26:40.352Z,45.79
2022-09-21T13:29:17.534Z,46.83
2022-09-21T13:32:00.947Z,46.51
2022-09-21T13:34:33.641Z,46.38
2022-09-21T13:37:14.043Z,46.39
2022-09-21T13:39:50.881Z,46.15
2022-09-21T13:42:34.616Z,46.26
2022-09-21T13:45:15.017Z,46.29
2022-09-21T13:47:48.866Z,46.11
2022-09-21T13:50:25.627Z,45.94
2022-09-21T13:53:25.179Z,46.84
2022-09-21T13:56:09.812Z,46.58
2022-09-21T13:58:45.879Z,46.64
2022-09-21T14:01:46.473Z,47.09
2022-09-21T14:04:27.445Z,46.51
2022-09-21T14:07:04.291Z,46.80
2022-09-21T14:09:57.878Z,46.14
2022-09-21T14:12:37.560Z,46.32
2022-09-21T14:15:19.340Z,45.82
2022-09-21T14:18:18.817Z,45.85
2022-09-21T14:21:08.866Z,46.02
2022-09-21T14:23:40.265Z,46.66
2022-09-21T14:26:33.927Z,47.31
2022-09-21T14:29:20.875Z,48.51
2022-09-21T14:31:59.445Z,48.97
2022-09-21T14:34:36.918Z,49.46
2022-09-21T14:37:30.172Z,49.55
2022-09-21T14:40:06.338Z,49.30
2022-09-21T14:42:39.713Z,49.05
2022-09-21T14:45:18.153Z,48.73
2022-09-21T14:48:13.947Z,47.71
2022-09-21T14:51:10.914Z,48.35
2022-09-21T14:54:19.736Z,48.22
2022-09-21T14:57:17.095Z,47.91
2022-09-21T15:00:20.914Z,47.35
2022-09-21T15:03:18.924Z,47.59
2022-09-21T15:05:56.697Z,47.20
2022-09-21T15:09:18.255Z,46.87
2022-09-21T15:11:59.180Z,47.50
2022-09-21T15:14:40.413Z,47.63
2022-09-21T15:17:27.135Z,47.24
2022-09-21T15:20:00.871Z,47.88
2022-09-21T15:22:32.690Z,47.52
2022-09-21T15:25:05.867Z,47.29
2022-09-21T15:27:37.691Z,47.11
2022-09-21T15:30:21.980Z,47.38
2022-09-21T15:33:01.785Z,47.13
2022-09-21T15:35:33.532Z,47.10
2022-09-21T15:38:28.898Z,47.48
2022-09-21T15:41:03.803Z,47.85
2022-09-21T15:43:40.315Z,47.76
2022-09-21T15:46:12.607Z,48.28
2022-09-21T15:48:46.057Z,48.40
2022-09-21T15:51:29.720Z,48.32
2022-09-21T15:54:23.686Z,48.49
2022-09-21T15:56:55.594Z,49.61
2022-09-21T15:59:28.831Z,50.33
2022-09-21T16:02:10.269Z,50.10
2022-09-21T16:04:49.848Z,51.06
2022-09-21T16:07:29.681Z,51.51
2022-09-21T16:10:02.426Z,51.45
2022-09-21T16:12:43.896Z,50.99
2022-09-21T16:15:32.116Z,51.79
2022-09-21T16:18:06.946Z,51.33
2022-09-21T16:20:40.496Z,51.93
2022-09-21T16:23:19.549Z,52.21
2022-09-21T16:26:02.010Z,52.90
2022-09-21T16:28:39.428Z,53.32
2022-09-21T16:31:32.089Z,53.63
2022-09-21T16:34:18.652Z,53.76
2022-09-21T16:36:51.263Z,54.04
2022-09-21T16:39:23.273Z,54.87
2022-09-21T16:42:00.036Z,54.90
2022-09-21T16:44:39.970Z,55.38
2022-09-21T16:47:16.478Z,55.58
2022-09-21T16:49:47.718Z,55.63
2022-09-21T16:52:19.141Z,55.77
2022-09-21T16:54:51.025Z,56.32
2022-09-21T16:57:23.782Z,56.15
2022-09-21T16:59:55.444Z,56.17
2022-09-21T17:02:26.759Z,56.67
2022-09-21T17:04:58.041Z,57.09
2022-09-21T17:07:29.281Z,57.44
2022-09-21T17:10:01.459Z,57.63
2022-09-21T17:12:32.717Z,58.28
2022-09-21T17:15:06.263Z,58.60
2022-09-21T17:17:37.561Z,58.95
2022-09-21T17:20:19.499Z,59.06
2022-09-21T17:22:50.745Z,59.62
2022-09-21T17:25:22.090Z,60.12
2022-09-21T17:27:53.463Z,60.37
2022-09-21T17:30:25.850Z,60.97
2022-09-21T17:32:58.349Z,61.34
2022-09-21T17:35:32.944Z,61.72
2022-09-21T17:38:05.005Z,61.90
2022-09-21T17:40:36.749Z,62.74
2022-09-21T17:43:43.698Z,62.62
2022-09-21T17:46:37.062Z,63.07
2022-09-21T17:49:11.134Z,63.62
2022-09-21T17:52:01.273Z,64.02
2022-09-21T17:54:32.903Z,64.36
2022-09-21T17:57:14.409Z,64.90
2022-09-21T17:59:54.925Z,65.13
2022-09-21T18:02:26.403Z,65.34
2022-09-21T18:05:03.020Z,65.70
2022-09-21T18:07:34.802Z,66.20
2022-09-21T18:10:07.168Z,66.30
2022-09-21T18:12:51.197Z,66.57
2022-09-21T18:15:40.109Z,66.94
2022-09-21T18:18:28.304Z,67.04
2022-09-21T18:21:05.674Z,67.54
2022-09-21T18:24:05.877Z,67.50
2022-09-21T18:26:39.113Z,67.82
2022-09-21T18:29:40.793Z,68.39
2022-09-21T18:32:49.222Z,68.47
2022-09-21T18:35:28.210Z,68.36
2022-09-21T18:38:36.057Z,68.78
2022-09-21T18:41:33.998Z,68.65
2022-09-21T18:44:17.920Z,68.97
2022-09-21T18:47:06.286Z,69.62
2022-09-21T18:49:50.341Z,69.44
2022-09-21T18:52:33.860Z,69.75
2022-09-21T18:55:23.711Z,70.17
2022-09-21T18:57:57.132Z,69.79
2022-09-21T19:00:34.949Z,70.23
2022-09-21T19:03:19.345Z,70.52
2022-09-21T19:06:11.172Z,70.81
2022-09-21T19:08:54.373Z,70.72
2022-09-21T19:11:38.055Z,70.98
2022-09-21T19:14:35.428Z,71.12
2022-09-21T19:17:31.430Z,71.36
2022-09-21T19:20:12.273Z,71.35
2022-09-21T19:23:11.620Z,71.35
2022-09-21T19:26:08.045Z,71.62
2022-09-21T19:28:47.986Z,71.72
2022-09-21T19:31:19.482Z,72.04
2022-09-21T19:33:51.718Z,71.72
2022-09-21T19:36:24.215Z,72.23
2022-09-21T19:38:55.762Z,72.43
2022-09-21T19:41:56.911Z,72.86
2022-09-21T19:44:57.572Z,72.59
2022-09-21T19:47:31.523Z,72.88
2022-09-21T19:50:17.100Z,73.07
2022-09-21T19:52:48.926Z,72.92
2022-09-21T19:55:40.354Z,72.99
2022-09-21T19:58:30.384Z,73.08
2022-09-21T20:01:01.849Z,73.68
2022-09-21T20:03:39.354Z,73.38
2022-09-21T20:06:49.917Z,73.55
2022-09-21T20:09:29.053Z,73.37
2022-09-21T20:12:23.492Z,73.59
2022-09-21T20:15:15.683Z,73.65
2022-09-21T20:17:54.462Z,73.95
2022-09-21T20:20:26.938Z,74.01
2022-09-21T20:23:00.181Z,74.41
2022-09-21T20:25:35.858Z,74.24
2022-09-21T20:28:08.273Z,74.31
2022-09-21T20:30:40.067Z,74.96
2022-09-21T20:33:16.962Z,74.65
2022-09-21T20:35:49.117Z,75.06
2022-09-21T20:38:20.413Z,75.11
2022-09-21T20:40:51.874Z,75.02
2022-09-21T20:43:27.963Z,74.92
2022-09-21T20:46:03.568Z,75.26
2022-09-21T20:48:36.929Z,74.92
2022-09-21T20:51:10.710Z,75.70
2022-09-21T20:53:42.133Z,75.42
2022-09-21T20:56:13.364Z,75.44
2022-09-21T20:58:44.664Z,75.71
2022-09-21T21:01:16.063Z,75.64
2022-09-21T21:03:47.432Z,75.67
2022-09-21T21:06:19.022Z,76.18
2022-09-21T21:08:50.620Z,75.76
2022-09-21T21:11:22.158Z,76.56
2022-09-21T21:13:58.178Z,76.19
2022-09-21T21:16:30.054Z,76.29
2022-09-21T21:19:01.356Z,76.38
2022-09-21T21:21:32.809Z,76.16
2022-09-21T21:24:22.988Z,76.63
2022-09-21T21:27:02.151Z,76.50
2022-09-21T21:29:34.180Z,76.44
2022-09-21T21:32:05.601Z,76.71
2022-09-21T21:34:38.210Z,76.78
2022-09-21T21:37:11.550Z,77.14
2022-09-21T21:39:43.412Z,77.16
2022-09-21T21:42:14.966Z,77.29
2022-09-21T21:44:47.454Z,77.28
2022-09-21T21:50:10.975Z,76.96
2022-09-21T21:52:44.965Z,76.94
2022-09-21T21:55:16.367Z,77.19
2022-09-21T21:57:47.626Z,77.26
2022-09-21T22:00:18.926Z,77.73
2022-09-21T22:02:50.198Z,77.23
2022-09-21T22:05:21.560Z,77.64
2022-09-21T22:07:52.866Z,77.30
2022-09-21T22:10:24.621Z,77.50
2022-09-21T22:12:57.278Z,77.28
2022-09-21T22:15:29.999Z,77.81
2022-09-21T22:18:01.254Z,77.92
2022-09-21T22:20:32.487Z,77.88
2022-09-21T22:23:04.245Z,77.82
2022-09-21T22:25:35.505Z,78.12
2022-09-21T22:28:07.050Z,78.41
2022-09-21T22:30:39.038Z,78.25
2022-09-21T22:33:10.281Z,78.17
2022-09-21T22:35:41.520Z,78.25
2022-09-21T22:38:13.510Z,78.26
2022-09-21T22:40:45.604Z,78.26
2022-09-21T22:43:16.983Z,78.63
2022-09-21T22:45:48.280Z,78.42
2022-09-21T22:48:19.528Z,78.79
2022-09-21T22:50:51.159Z,78.33
2022-09-21T22:53:23.358Z,78.22
2022-09-21T22:56:05.922Z,78.29
2022-09-21T22:58:40.322Z,78.41
2022-09-21T23:01:13.158Z,78.63
2022-09-21T23:03:46.949Z,78.28
2022-09-21T23:06:19.634Z,78.61
2022-09-21T23:08:52.103Z,78.42
2022-09-21T23:11:27.041Z,78.48
2022-09-21T23:13:59.324Z,78.34
2022-09-21T23:16:31.646Z,78.55
2022-09-21T23:19:03.318Z,78.22
2022-09-21T23:21:34.574Z,78.40
2022-09-21T23:24:06.080Z,78.43
2022-09-21T23:26:37.433Z,78.66
2022-09-21T23:29:12.529Z,78.56
2022-09-21T23:31:46.062Z,78.31
2022-09-21T23:34:17.768Z,78.67
2022-09-21T23:36:49.041Z,78.33
2022-09-21T23:39:20.313Z,78.85
2022-09-21T23:41:51.674Z,78.49
2022-09-21T23:44:22.978Z,78.94
2022-09-21T23:46:54.288Z,78.67
2022-09-21T23:49:25.742Z,78.96
2022-09-21T23:51:56.984Z,78.57
2022-09-21T23:54:28.477Z,78.67
2022-09-21T23:56:59.724Z,78.74
2022-09-21T23:59:31.005Z,78.60
